Main page
METAR-TAF:

METAR-TAF

Airports :

Pella Municipal Airport

Pella, Iowa, United States

latitude: 41-24N, longitude: 092-56W, elevation: 886 ft

Current weather observation

The report was made 32 minutes ago, at 07:55 UTC
Wind 9 mph from the West/Northwest
Temperature 36°F
Humidity 69%
Pressure 30.26 in. Hg
Visibility: 10 miles
Clear sky

METAR: KPEA 210755Z AUTO 29008KT 10SM CLR 02/M03 A3026 RMK AO2 T00231032

Time: 03:27 (08:27 UTC)


TAF: missing

Weather observations and forecasts of more than 4000 airports (METAR and TAF reports).

The available stations are represented by yellow and red dots on the map.

Hover mouse over dot to see the name of the station.

Then click to see weather observations and forecasts.

To change the map : click on the green buttons with a black cross to zoom in, on the green button with a dash to zoom out, or on the green arrows for adjacent maps.


METAR-TAF: